Time;durP1;ratioP1;P1;durP2;ratioP2;P2;SDS_P1;SDS_P2;PMS_P1;PMS_P2;Temp;Humidity;BMP_temperature;BMP_pressure;BME280_temperature;BME280_humidity;BME280_pressure;Samples;Min_cycle;Max_cycle;Signal;HPM_P1;HPM_P2
2022/04/29 00:01:28;;;;;;;11.87;8.90;;;11.20;1.00;;;;;;5105265;28;20182;-58
2022/04/29 00:03:53;;;;;;;12.50;9.60;;;11.20;1.00;;;;;;5107673;28;20186;-57
2022/04/29 00:06:29;;;;;;;12.77;9.57;;;11.20;1.00;;;;;;5106776;28;20274;-57
2022/04/29 00:08:54;;;;;;;11.13;9.93;;;13.40;1.00;;;;;;5095109;28;20637;-58
2022/04/29 00:11:20;;;;;;;16.00;9.83;;;11.20;1.00;;;;;;5103828;28;20480;-58
2022/04/29 00:13:46;;;;;;;11.50;10.27;;;;;;;;;;5104981;28;20194;-58
2022/04/29 00:16:44;;;;;;;10.53;9.47;;;11.10;1.00;;;;;;5098802;28;20471;-58
2022/04/29 00:19:10;;;;;;;10.73;9.63;;;11.10;1.00;;;;;;5108082;28;20469;-56
2022/04/29 00:21:35;;;;;;;12.20;10.57;;;11.00;1.00;;;;;;5101562;28;21026;-58
2022/04/29 00:24:01;;;;;;;11.23;10.13;;;11.00;1.00;;;;;;5103089;28;20178;-57
2022/04/29 00:26:27;;;;;;;12.27;10.37;;;11.00;1.00;;;;;;5097313;28;20231;-58
2022/04/29 00:28:52;;;;;;;12.30;10.93;;;10.90;1.00;;;;;;5098434;28;21017;-57
2022/04/29 00:31:28;;;;;;;13.37;9.60;;;10.90;1.00;;;;;;5106673;28;20801;-57
2022/04/29 00:33:54;;;;;;;10.57;9.57;;;10.90;1.00;;;;;;5105724;28;22007;-58
2022/04/29 00:36:20;;;;;;;12.10;11.00;;;10.70;1.00;;;;;;5097487;28;20486;-57
2022/04/29 00:38:45;;;;;;;12.27;10.53;;;10.70;1.00;;;;;;5099625;28;20214;-56
2022/04/29 00:41:22;;;;;;;12.37;10.60;;;10.70;1.00;;;;;;5101667;28;20186;-57
2022/04/29 00:43:58;;;;;;;11.67;10.47;;;13.80;1.00;;;;;;5104617;28;20305;-56
2022/04/29 00:46:25;;;;;;;13.50;11.47;;;10.70;1.00;;;;;;5101457;28;20522;-58
2022/04/29 00:48:50;;;;;;;14.20;11.27;;;10.60;1.00;;;;;;5105974;28;20452;-58
2022/04/29 00:51:18;;;;;;;15.03;10.90;;;10.60;1.00;;;;;;5108647;28;20451;-57
2022/04/29 00:53:45;;;;;;;12.03;10.30;;;10.60;1.00;;;;;;5080192;28;20553;-58
2022/04/29 00:56:20;;;;;;;12.43;10.70;;;10.60;1.00;;;;;;5103196;28;20475;-57
2022/04/29 00:59:02;;;;;;;13.70;10.73;;;10.60;1.00;;;;;;5108705;28;20451;-57
2022/04/29 01:01:31;;;;;;;13.07;11.07;;;10.60;1.00;;;;;;5102541;28;20444;-58
2022/04/29 01:04:00;;;;;;;13.40;10.57;;;10.50;1.00;;;;;;5103599;28;20469;-58
2022/04/29 01:06:26;;;;;;;13.03;11.73;;;10.40;1.00;;;;;;5099230;28;20460;-57
2022/04/29 01:08:52;;;;;;;11.77;10.57;;;10.40;1.00;;;;;;5097555;28;20451;-59
2022/04/29 01:11:25;;;;;;;15.50;11.50;;;10.40;1.00;;;;;;5098385;28;20460;-57
2022/04/29 01:13:52;;;;;;;13.03;10.40;;;10.30;1.00;;;;;;5102313;28;20524;-57
2022/04/29 01:16:30;;;;;;;11.60;10.20;;;10.30;1.00;;;;;;5104161;28;20463;-57
2022/04/29 01:18:55;;;;;;;14.93;11.77;;;10.20;1.00;;;;;;5098169;28;20443;-56
2022/04/29 01:21:27;;;;;;;13.73;12.17;;;10.20;1.00;;;;;;5094785;28;20447;-58
2022/04/29 01:23:53;;;;;;;13.70;11.30;;;10.20;1.00;;;;;;5099090;28;20196;-56
2022/04/29 01:26:18;;;;;;;17.27;11.40;;;10.20;1.00;;;;;;5101789;28;20448;-58
2022/04/29 01:28:47;;;;;;;14.37;11.07;;;10.30;1.00;;;;;;5096346;28;20220;-57
2022/04/29 01:31:16;;;;;;;14.13;11.47;;;10.20;1.00;;;;;;5091784;28;20187;-57
2022/04/29 01:33:44;;;;;;;14.97;11.90;;;10.10;1.00;;;;;;5105793;28;20455;-57
2022/04/29 01:36:22;;;;;;;13.33;11.00;;;10.20;1.00;;;;;;5106128;28;20556;-57
2022/04/29 01:38:47;;;;;;;11.90;10.60;;;10.20;1.00;;;;;;5104325;28;20444;-57
2022/04/29 01:41:25;;;;;;;15.20;11.10;;;10.10;1.00;;;;;;5085041;28;21009;-58
2022/04/29 01:43:51;;;;;;;12.83;11.50;;;10.10;1.00;;;;;;5096360;28;20238;-57
2022/04/29 01:46:28;;;;;;;12.63;10.83;;;10.00;1.00;;;;;;5101512;28;20783;-58
2022/04/29 01:48:54;;;;;;;15.57;11.27;;;10.00;1.00;;;;;;5103211;28;20281;-56
2022/04/29 01:51:22;;;;;;;12.40;10.90;;;9.90;1.00;;;;;;5104511;28;20539;-57
2022/04/29 01:53:53;;;;;;;13.23;11.20;;;9.90;1.00;;;;;;5101359;28;20208;-58
2022/04/29 01:56:32;;;;;;;13.07;11.67;;;9.90;1.00;;;;;;5096499;28;20468;-58
2022/04/29 01:58:59;;;;;;;15.43;10.50;;;9.80;1.00;;;;;;5109815;28;21151;-58
2022/04/29 02:01:26;;;;;;;13.17;11.70;;;9.80;1.00;;;;;;5105217;28;20448;-57
2022/04/29 02:03:52;;;;;;;12.40;11.00;;;9.80;1.00;;;;;;5109054;28;20841;-58
2022/04/29 02:06:22;;;;;;;11.77;10.57;;;9.80;1.00;;;;;;5108122;28;20492;-56
2022/04/29 02:08:48;;;;;;;14.03;11.67;;;9.70;1.00;;;;;;5108916;28;20193;-58
2022/04/29 02:11:17;;;;;;;12.63;11.33;;;9.70;1.00;;;;;;5103159;28;20525;-56
2022/04/29 02:13:47;;;;;;;14.03;11.30;;;9.60;1.00;;;;;;5099822;28;20447;-57
2022/04/29 02:16:14;;;;;;;12.63;11.30;;;9.60;1.00;;;;;;5102093;28;20471;-56
2022/04/29 02:18:40;;;;;;;14.23;11.80;;;9.60;1.00;;;;;;5101727;28;20458;-57
2022/04/29 02:21:43;;;;;;;14.13;11.00;;;9.60;1.00;;;;;;5107690;28;20522;-57
2022/04/29 02:24:09;;;;;;;12.87;11.43;;;9.60;1.00;;;;;;5104508;28;20467;-56
2022/04/29 02:26:34;;;;;;;12.70;11.40;;;9.60;1.00;;;;;;5102855;28;21003;-57
2022/04/29 02:28:59;;;;;;;16.73;12.10;;;9.60;1.00;;;;;;5101192;28;20229;-59
2022/04/29 02:31:25;;;;;;;14.60;11.20;;;9.40;1.00;;;;;;5102517;28;20242;-57
2022/04/29 02:33:51;;;;;;;14.40;11.63;;;9.50;1.00;;;;;;5106564;28;20552;-58
2022/04/29 02:36:20;;;;;;;14.77;12.87;;;9.40;1.00;;;;;;5085863;28;20203;-57
2022/04/29 02:38:45;;;;;;;13.80;11.27;;;9.40;1.00;;;;;;5105297;28;20193;-58
2022/04/29 02:41:51;;;;;;;14.70;13.13;;;9.40;1.00;;;;;;5103475;28;20455;-57
2022/04/29 02:44:17;;;;;;;15.23;11.67;;;9.40;1.00;;;;;;5101547;28;20324;-57
2022/04/29 02:49:33;;;;;;;14.90;12.50;;;9.30;1.00;;;;;;5096805;28;20308;-59
2022/04/29 02:51:58;;;;;;;13.70;11.70;;;9.30;1.00;;;;;;5103359;28;20455;-57
2022/04/29 02:54:24;;;;;;;17.77;12.67;;;9.30;1.00;;;;;;5097893;28;21044;-56
2022/04/29 02:56:50;;;;;;;17.57;12.33;;;9.30;1.00;;;;;;5099060;28;20723;-58
2022/04/29 02:59:18;;;;;;;16.30;12.53;;;9.20;1.00;;;;;;5104292;28;20201;-58
2022/04/29 03:01:44;;;;;;;14.67;12.10;;;9.20;1.00;;;;;;5102642;28;21011;-58
2022/04/29 03:04:09;;;;;;;14.27;12.87;;;9.20;1.00;;;;;;5099550;28;20526;-57
2022/04/29 03:06:35;;;;;;;13.20;11.80;;;9.10;1.00;;;;;;5096232;28;20601;-58
2022/04/29 03:09:00;;;;;;;16.87;12.07;;;9.10;1.00;;;;;;5099299;28;20236;-56
2022/04/29 03:11:26;;;;;;;15.13;12.50;;;9.10;1.00;;;;;;5101567;28;20698;-57
2022/04/29 03:13:51;;;;;;;16.30;11.40;;;9.10;1.00;;;;;;5103898;28;20642;-59
2022/04/29 03:16:23;;;;;;;17.30;12.77;;;9.10;1.00;;;;;;5102078;28;20221;-59
2022/04/29 03:18:48;;;;;;;13.60;12.10;;;9.10;1.00;;;;;;5102700;28;20190;-56
2022/04/29 03:21:29;;;;;;;14.00;12.30;;;9.00;1.00;;;;;;5102868;28;22042;-58
2022/04/29 03:23:55;;;;;;;14.57;12.37;;;8.90;1.00;;;;;;5098330;28;20205;-57
2022/04/29 03:26:21;;;;;;;14.23;11.87;;;8.90;1.00;;;;;;5104549;28;20936;-57
2022/04/29 03:28:46;;;;;;;17.63;12.30;;;8.90;1.00;;;;;;5096754;28;20291;-58
2022/04/29 03:34:38;;;;;;;14.40;12.37;;;8.80;1.00;;;;;;5013395;28;20527;-58
2022/04/29 03:37:04;;;;;;;14.13;12.63;;;;;;;;;;5099809;28;20529;-58
2022/04/29 03:39:29;;;;;;;15.03;11.93;;;8.90;1.00;;;;;;5102946;28;20183;-56
2022/04/29 03:41:55;;;;;;;15.30;12.70;;;8.80;1.00;;;;;;5102404;28;20437;-61
2022/04/29 03:44:21;;;;;;;13.33;11.93;;;8.80;1.00;;;;;;5097068;28;20233;-59
2022/04/29 03:46:46;;;;;;;14.33;11.30;;;8.80;1.00;;;;;;5072331;28;20190;-58
2022/04/29 03:51:56;;;;;;;13.60;11.80;;;8.80;1.00;;;;;;5102756;28;20462;-60
2022/04/29 03:54:22;;;;;;;15.47;12.77;;;8.70;1.00;;;;;;5100092;28;20448;-59
2022/04/29 03:56:51;;;;;;;17.10;12.43;;;8.70;1.00;;;;;;5094334;28;20220;-58
2022/04/29 03:59:17;;;;;;;16.70;12.30;;;8.80;1.00;;;;;;5098241;28;20189;-58
2022/04/29 04:01:48;;;;;;;12.80;11.47;;;8.70;1.00;;;;;;5104320;28;20946;-58
2022/04/29 04:04:14;;;;;;;14.40;12.17;;;8.80;1.00;;;;;;5100432;28;20554;-60
2022/04/29 04:06:52;;;;;;;12.97;11.07;;;;;;;;;;5102941;28;20448;-59
2022/04/29 04:09:22;;;;;;;14.70;11.90;;;8.80;1.00;;;;;;5104066;28;20282;-60
2022/04/29 04:15:05;;;;;;;19.00;12.23;;;8.90;1.00;;;;;;5098773;28;20494;-58
2022/04/29 04:17:31;;;;;;;13.77;11.57;;;8.90;1.00;;;;;;5085626;28;21004;-58
2022/04/29 04:19:57;;;;;;;16.90;12.77;;;8.90;1.00;;;;;;5100857;28;20531;-59
2022/04/29 04:22:22;;;;;;;12.17;10.87;;;8.90;1.00;;;;;;5098847;28;20190;-60
2022/04/29 04:24:48;;;;;;;15.73;11.60;;;9.00;1.00;;;;;;5100981;28;20278;-60
2022/04/29 04:27:13;;;;;;;16.20;12.30;;;9.00;1.00;;;;;;5105307;28;20240;-59
2022/04/29 04:29:39;;;;;;;12.93;11.30;;;9.00;1.00;;;;;;5101659;28;20742;-59
2022/04/29 04:32:05;;;;;;;14.03;11.73;;;9.10;1.00;;;;;;5101106;28;20182;-59
2022/04/29 04:37:34;;;;;;;13.40;10.93;;;9.20;1.00;;;;;;5092329;28;20221;-60
2022/04/29 04:40:02;;;;;;;13.63;11.07;;;9.30;1.00;;;;;;5090897;28;20938;-60
2022/04/29 04:42:28;;;;;;;12.17;10.87;;;9.40;1.00;;;;;;5103792;28;20471;-59
2022/04/29 04:44:54;;;;;;;14.70;11.13;;;9.40;1.00;;;;;;5110237;28;20450;-59
2022/04/29 04:49:45;;;;;;;10.77;9.77;;;9.50;1.00;;;;;;5101144;28;20456;-60
2022/04/29 04:52:11;;;;;;;11.27;10.17;;;9.70;1.00;;;;;;5108771;28;20190;-59
2022/04/29 04:54:37;;;;;;;13.17;10.47;;;9.70;1.00;;;;;;5093193;28;20182;-60
2022/04/29 04:57:04;;;;;;;13.83;10.90;;;9.80;1.00;;;;;;5107029;28;20241;-60
2022/04/29 04:59:30;;;;;;;12.67;10.70;;;10.00;1.00;;;;;;5096294;28;20458;-59
2022/04/29 05:01:57;;;;;;;12.67;9.43;;;10.00;1.00;;;;;;5099211;28;20445;-59
2022/04/29 05:04:23;;;;;;;11.63;10.50;;;10.10;1.00;;;;;;5108700;28;20479;-60
2022/04/29 05:06:48;;;;;;;12.13;8.97;;;10.30;1.00;;;;;;5073827;28;20468;-60
2022/04/29 05:09:14;;;;;;;10.83;9.73;;;10.30;1.00;;;;;;5073944;28;20452;-59
2022/04/29 05:15:02;;;;;;;11.93;9.53;;;10.40;1.00;;;;;;5080028;28;20829;-59
2022/04/29 05:17:48;;;;;;;15.87;10.60;;;10.40;1.00;;;;;;5109445;28;20528;-60
2022/04/29 05:20:16;;;;;;;13.17;9.90;;;10.40;1.00;;;;;;5105442;28;20178;-58
2022/04/29 05:22:42;;;;;;;10.60;9.57;;;10.60;1.00;;;;;;5107857;28;20439;-59
2022/04/29 05:25:08;;;;;;;15.13;10.87;;;10.60;1.00;;;;;;5091040;28;20845;-59
2022/04/29 05:27:33;;;;;;;11.20;9.20;;;10.70;1.00;;;;;;5092036;28;20968;-59
2022/04/29 05:29:59;;;;;;;17.00;14.20;;;10.70;1.00;;;;;;5108191;28;20523;-59
2022/04/29 05:35:41;;;;;;;13.10;10.83;;;11.00;1.00;;;;;;5082445;28;20588;-59
2022/04/29 05:38:07;;;;;;;13.63;10.20;;;11.00;1.00;;;;;;5107936;28;20466;-60
2022/04/29 05:43:17;;;;;;;13.20;10.63;;;10.90;1.00;;;;;;5103299;28;20268;-59
2022/04/29 05:45:43;;;;;;;13.07;10.30;;;11.00;1.00;;;;;;5105502;28;20875;-58
2022/04/29 05:48:09;;;;;;;14.33;10.07;;;11.00;1.00;;;;;;5076619;28;20270;-60
2022/04/29 05:50:34;;;;;;;12.53;11.20;;;11.00;1.00;;;;;;5091560;28;20543;-60
2022/04/29 05:53:00;;;;;;;12.00;10.77;;;11.00;1.00;;;;;;5106695;28;20448;-59
2022/04/29 05:55:25;;;;;;;15.00;11.10;;;10.90;1.00;;;;;;5113157;28;20190;-59
2022/04/29 05:57:51;;;;;;;14.93;11.20;;;10.90;1.00;;;;;;5112404;28;20539;-59
2022/04/29 06:00:19;;;;;;;12.50;10.27;;;10.90;1.00;;;;;;5112678;28;21042;-59
2022/04/29 06:02:46;;;;;;;14.60;11.73;;;10.90;1.00;;;;;;5112216;28;20194;-59
2022/04/29 06:05:12;;;;;;;11.97;10.53;;;11.00;1.00;;;;;;5109566;28;20469;-59
2022/04/29 06:07:37;;;;;;;16.30;11.87;;;11.10;1.00;;;;;;5103599;28;20491;-59
2022/04/29 06:10:05;;;;;;;12.60;10.80;;;11.20;1.00;;;;;;5103332;28;20601;-59
2022/04/29 06:12:36;;;;;;;12.57;11.27;;;11.30;1.00;;;;;;5104743;28;20277;-59
2022/04/29 06:15:01;;;;;;;12.47;11.17;;;11.50;1.00;;;;;;5102815;28;20451;-60
2022/04/29 06:17:27;;;;;;;13.00;11.50;;;11.80;1.00;;;;;;5102556;28;20505;-59
2022/04/29 06:19:53;;;;;;;13.17;10.37;;;11.70;1.00;;;;;;5101033;28;20247;-60
2022/04/29 06:25:44;;;;;;;13.30;10.80;;;12.10;1.00;;;;;;5020881;28;20251;-61
2022/04/29 06:28:10;;;;;;;11.73;10.53;;;12.20;1.00;;;;;;5094867;28;20851;-58
2022/04/29 06:30:36;;;;;;;12.40;11.10;;;10.20;1.00;;;;;;5101466;28;20269;-59
2022/04/29 06:33:02;;;;;;;15.73;10.90;;;12.20;1.00;;;;;;5107315;28;20531;-59
2022/04/29 06:35:27;;;;;;;14.70;11.33;;;12.30;1.00;;;;;;5108486;28;20689;-59
2022/04/29 06:37:53;;;;;;;13.80;10.83;;;12.40;1.00;;;;;;5097956;28;20249;-58
2022/04/29 06:40:18;;;;;;;12.20;10.60;;;12.70;1.00;;;;;;5112381;28;20205;-59
2022/04/29 06:42:48;;;;;;;11.40;10.30;;;13.10;1.00;;;;;;5112628;28;20244;-59
2022/04/29 06:45:14;;;;;;;10.87;9.60;;;13.20;1.00;;;;;;5097687;28;20213;-59
2022/04/29 06:47:40;;;;;;;14.97;11.80;;;13.20;1.00;;;;;;5098854;28;20443;-59
2022/04/29 06:50:06;;;;;;;12.50;11.20;;;13.40;1.00;;;;;;5094954;28;20458;-59
2022/04/29 06:52:35;;;;;;;12.63;11.33;;;13.50;1.00;;;;;;5111793;28;20852;-59
2022/04/29 06:55:00;;;;;;;13.83;10.63;;;13.50;1.00;;;;;;5109473;28;20928;-60
2022/04/29 06:57:26;;;;;;;13.73;11.67;;;13.60;1.00;;;;;;5111248;28;20548;-60
2022/04/29 06:59:52;;;;;;;14.17;11.53;;;13.50;1.00;;;;;;5109535;28;20647;-59
2022/04/29 07:02:18;;;;;;;12.13;10.93;;;13.60;1.00;;;;;;5107622;28;20456;-60
2022/04/29 07:04:45;;;;;;;13.80;11.30;;;13.60;1.00;;;;;;5110327;28;20716;-60
2022/04/29 07:07:11;;;;;;;14.20;11.73;;;13.60;1.00;;;;;;5112842;28;20448;-60
2022/04/29 07:09:40;;;;;;;14.47;11.07;;;13.70;1.00;;;;;;5103818;28;20467;-60
2022/04/29 07:12:07;;;;;;;12.83;11.53;;;13.80;1.00;;;;;;5110385;28;20189;-60
2022/04/29 07:14:33;;;;;;;12.27;11.07;;;13.70;1.00;;;;;;5110188;28;20451;-60
2022/04/29 07:16:59;;;;;;;13.27;11.93;;;13.80;1.00;;;;;;5097295;28;20847;-60
2022/04/29 07:19:24;;;;;;;13.60;11.90;;;14.10;1.00;;;;;;5103436;28;20449;-59
2022/04/29 07:21:50;;;;;;;12.53;11.33;;;14.20;1.00;;;;;;5098065;28;20290;-59
2022/04/29 07:24:15;;;;;;;18.00;13.50;;;14.50;1.00;;;;;;5091690;28;20210;-60
2022/04/29 07:26:41;;;;;;;13.87;12.50;;;14.80;1.00;;;;;;5100168;28;20264;-60
2022/04/29 07:29:07;;;;;;;13.50;12.00;;;15.20;1.00;;;;;;5091768;28;20230;-60
2022/04/29 07:31:33;;;;;;;13.07;10.63;;;15.70;1.00;;;;;;5098906;28;20206;-60
2022/04/29 07:33:59;;;;;;;12.47;11.17;;;16.10;1.00;;;;;;5111788;28;20826;-59
2022/04/29 07:41:44;;;;;;;13.10;11.90;;;17.20;1.00;;;;;;5102830;28;20531;-60
2022/04/29 07:42:07;;;;;;;13.37;11.90;;;16.90;1.00;;;;;;5095638;28;20987;-60
2022/04/29 07:44:33;;;;;;;15.00;11.53;;;16.80;1.00;;;;;;5101337;28;20539;-60
2022/04/29 07:46:59;;;;;;;12.77;11.47;;;16.90;1.00;;;;;;5099873;28;20194;-59
2022/04/29 07:49:25;;;;;;;12.23;10.70;;;17.10;1.00;;;;;;5092626;28;20451;-59
2022/04/29 07:51:51;;;;;;;15.60;10.63;;;17.30;1.00;;;;;;5091530;28;20782;-59
2022/04/29 07:54:16;;;;;;;12.20;11.00;;;17.40;1.00;;;;;;5105047;28;20269;-60
2022/04/29 07:56:42;;;;;;;13.07;11.30;;;17.30;1.00;;;;;;5106192;28;20219;-60
2022/04/29 07:59:08;;;;;;;12.07;10.83;;;17.30;1.00;;;;;;5091606;28;20276;-59
2022/04/29 08:01:37;;;;;;;13.73;10.73;;;17.10;1.00;;;;;;5076875;28;20863;-60
2022/04/29 08:04:03;;;;;;;12.10;10.87;;;17.10;1.00;;;;;;5091212;28;20183;-61
2022/04/29 08:06:29;;;;;;;10.13;9.10;;;17.30;1.00;;;;;;5092616;28;20779;-60
2022/04/29 08:08:55;;;;;;;16.73;10.13;;;17.30;1.00;;;;;;5097224;28;20448;-61
2022/04/29 08:11:20;;;;;;;11.63;10.43;;;17.40;1.00;;;;;;5102854;28;20267;-60
2022/04/29 08:13:47;;;;;;;15.63;11.70;;;17.50;1.00;;;;;;5103522;28;20206;-60
2022/04/29 08:16:12;;;;;;;12.13;10.67;;;17.30;1.00;;;;;;5096418;28;20206;-60
2022/04/29 08:18:38;;;;;;;12.53;11.13;;;17.10;1.00;;;;;;5109111;28;20450;-60
2022/04/29 08:21:07;;;;;;;10.90;9.80;;;17.20;1.00;;;;;;5111249;28;20277;-61
2022/04/29 08:23:33;;;;;;;15.07;11.00;;;17.30;1.00;;;;;;5095083;28;20679;-60
2022/04/29 08:25:58;;;;;;;14.40;11.13;;;17.40;1.00;;;;;;5108716;28;20448;-61
2022/04/29 08:28:26;;;;;;;14.47;11.03;;;17.60;1.00;;;;;;5097448;28;20449;-63
2022/04/29 08:30:54;;;;;;;14.93;11.40;;;17.60;1.00;;;;;;5080729;28;20540;-61
2022/04/29 08:33:21;;;;;;;15.30;10.90;;;;;;;;;;5093200;28;20498;-60
2022/04/29 08:35:47;;;;;;;15.00;11.30;;;16.70;1.00;;;;;;5097241;28;20451;-60
2022/04/29 08:38:13;;;;;;;14.40;10.37;;;16.80;1.00;;;;;;5090494;28;20432;-60
2022/04/29 08:40:46;;;;;;;15.80;11.07;;;17.20;1.00;;;;;;5106574;28;20795;-60
2022/04/29 08:43:14;;;;;;;13.20;11.00;;;17.40;1.00;;;;;;5092469;28;20460;-60
2022/04/29 08:45:40;;;;;;;12.30;11.00;;;17.30;1.00;;;;;;5103899;28;20441;-61
2022/04/29 08:48:07;;;;;;;12.23;10.80;;;17.30;1.00;;;;;;5090538;28;20429;-60
2022/04/29 08:50:32;;;;;;;15.00;10.40;;;17.70;1.00;;;;;;5101553;28;20448;-59
2022/04/29 08:52:59;;;;;;;14.00;10.90;;;18.20;1.00;;;;;;5106766;28;20447;-62
2022/04/29 09:01:09;;;;;;;11.90;10.67;;;19.00;1.00;;;;;;5105555;28;20539;-60
2022/04/29 09:03:35;;;;;;;12.47;9.43;;;18.60;1.00;;;;;;5110427;28;20431;-60
2022/04/29 09:06:04;;;;;;;10.50;9.50;;;18.80;1.00;;;;;;5097193;28;20526;-60
2022/04/29 09:08:32;;;;;;;10.30;9.20;;;19.00;1.00;;;;;;5090008;28;20490;-61
2022/04/29 09:11:00;;;;;;;14.40;9.37;;;19.20;1.00;;;;;;5092559;28;20444;-60
2022/04/29 09:13:27;;;;;;;12.90;9.40;;;19.60;1.00;;;;;;5090057;28;20436;-61
2022/04/29 09:16:00;;;;;;;10.97;9.70;;;19.70;1.00;;;;;;5095812;28;20456;-60
2022/04/29 09:18:35;;;;;;;10.53;7.70;;;19.70;1.00;;;;;;5093362;28;20498;-60
2022/04/29 09:21:17;;;;;;;9.37;8.37;;;19.70;1.00;;;;;;5092213;28;20501;-61
2022/04/29 09:23:46;;;;;;;8.73;6.23;;;19.80;1.00;;;;;;5097395;28;20498;-60
2022/04/29 09:26:25;;;;;;;6.63;5.97;;;19.60;1.00;;;;;;5091180;28;20452;-60
2022/04/29 09:29:08;;;;;;;9.53;6.30;;;19.20;1.00;;;;;;5106010;28;20448;-60
2022/04/29 09:32:00;;;;;;;11.57;8.43;;;19.30;1.00;;;;;;5110295;28;20467;-61
2022/04/29 09:34:58;;;;;;;12.73;8.00;;;19.70;1.00;;;;;;5108669;28;20575;-60
2022/04/29 09:37:27;;;;;;;12.40;8.33;;;20.10;1.00;;;;;;5094054;28;20547;-61
2022/04/29 09:39:58;;;;;;;11.53;7.80;;;20.40;1.00;;;;;;5090579;28;20463;-61
2022/04/29 09:42:24;;;;;;;10.43;7.33;;;20.70;1.00;;;;;;5089324;28;20802;-61
2022/04/29 09:44:50;;;;;;;7.33;6.20;;;20.90;1.00;;;;;;5096543;28;20445;-60
2022/04/29 09:47:20;;;;;;;11.50;6.60;;;20.90;1.00;;;;;;5094454;28;20486;-60
2022/04/29 09:49:58;;;;;;;10.07;6.97;;;21.30;1.00;;;;;;5100777;28;20451;-60
2022/04/29 09:52:30;;;;;;;8.70;7.00;;;21.70;1.00;;;;;;5097924;28;20520;-60
2022/04/29 09:55:14;;;;;;;7.07;5.10;;;21.40;1.00;;;;;;5100196;28;20432;-61
2022/04/29 09:57:59;;;;;;;12.73;6.10;;;21.00;1.00;;;;;;5093405;28;20813;-61
2022/04/29 10:00:25;;;;;;;8.50;5.70;;;20.80;1.00;;;;;;5106840;28;20762;-60
2022/04/29 10:02:52;;;;;;;6.40;5.80;;;20.30;1.00;;;;;;5090058;28;20810;-62
2022/04/29 10:05:17;;;;;;;12.30;7.50;;;20.30;1.00;;;;;;5090818;28;20443;-61
2022/04/29 10:07:44;;;;;;;6.73;6.03;;;19.80;1.00;;;;;;5101220;28;20440;-61
2022/04/29 10:10:10;;;;;;;10.50;6.57;;;19.60;1.00;;;;;;5090951;28;20283;-61
2022/04/29 10:12:36;;;;;;;6.70;6.00;;;19.70;1.00;;;;;;5089740;28;20480;-61
2022/04/29 10:15:05;;;;;;;6.37;5.73;;;19.70;1.00;;;;;;5099006;28;20481;-61
2022/04/29 10:23:12;;;;;;;7.50;6.60;;;19.70;1.00;;;;;;5097072;28;20442;-61
2022/04/29 10:25:46;;;;;;;6.50;5.90;;;19.90;1.00;;;;;;5093248;28;20427;-61
2022/04/29 10:28:22;;;;;;;13.83;7.40;;;19.90;1.00;;;;;;5096497;28;20812;-61
2022/04/29 10:30:59;;;;;;;8.40;6.13;;;19.90;1.00;;;;;;5105785;28;20439;-62
2022/04/29 10:33:25;;;;;;;8.70;7.63;;;19.90;1.00;;;;;;5098637;28;20443;-63
2022/04/29 10:35:56;;;;;;;8.97;8.10;;;19.80;1.00;;;;;;5113174;28;20428;-60
2022/04/29 10:38:26;;;;;;;9.00;7.53;;;19.80;1.00;;;;;;5111745;28;20237;-61
2022/04/29 10:41:15;;;;;;;10.43;7.40;;;19.80;1.00;;;;;;5086394;28;20978;-60
2022/04/29 10:43:45;;;;;;;7.30;6.27;;;19.90;1.00;;;;;;5111901;28;20464;-62
2022/04/29 10:46:10;;;;;;;7.00;6.27;;;20.10;1.00;;;;;;5094438;28;20429;-60
2022/04/29 10:48:37;;;;;;;6.53;5.93;;;20.10;1.00;;;;;;5094525;28;20447;-61
2022/04/29 10:51:27;;;;;;;7.63;5.57;;;20.40;1.00;;;;;;5101848;28;20366;-61
2022/04/29 10:53:58;;;;;;;8.07;7.00;;;20.80;1.00;;;;;;5092760;28;20899;-61
2022/04/29 10:56:32;;;;;;;6.07;5.47;;;21.00;1.00;;;;;;5099271;28;20465;-61
2022/04/29 10:59:03;;;;;;;7.70;6.17;;;21.20;1.00;;;;;;5092470;28;20441;-62
2022/04/29 11:01:33;;;;;;;6.17;5.57;;;21.40;1.00;;;;;;5099956;28;20454;-60
2022/04/29 11:04:06;;;;;;;7.13;5.90;;;21.30;1.00;;;;;;5096197;28;20483;-60
2022/04/29 11:06:46;;;;;;;7.23;5.77;;;21.20;1.00;;;;;;5096007;28;20786;-61
2022/04/29 11:09:30;;;;;;;5.70;4.93;;;21.40;1.00;;;;;;5099375;28;20458;-61
2022/04/29 11:11:57;;;;;;;8.70;6.00;;;21.90;1.00;;;;;;5092150;28;20449;-63
2022/04/29 11:14:22;;;;;;;6.70;6.10;;;22.00;1.00;;;;;;5092830;28;20976;-62
2022/04/29 11:16:52;;;;;;;7.97;5.97;;;22.10;1.00;;;;;;5107079;27;20445;-62
2022/04/29 11:19:21;;;;;;;6.73;5.80;;;22.40;1.00;;;;;;5094056;28;20190;-61
2022/04/29 11:24:42;;;;;;;7.50;5.80;;;22.20;1.00;;;;;;5111333;28;20543;-61
2022/04/29 11:27:08;;;;;;;7.40;6.20;;;22.20;1.00;;;;;;5082780;28;21714;-61
2022/04/29 11:29:45;;;;;;;8.40;5.97;;;22.10;1.00;;;;;;5109741;28;20451;-61
2022/04/29 11:32:11;;;;;;;10.73;6.13;;;21.90;1.00;;;;;;5097058;28;20934;-61
2022/04/29 11:35:06;;;;;;;7.13;5.53;;;21.90;1.00;;;;;;5096027;28;20431;-60
2022/04/29 11:37:34;;;;;;;6.87;5.30;;;21.80;1.00;;;;;;5104545;28;20463;-61
2022/04/29 11:40:10;;;;;;;7.70;6.40;;;21.60;1.00;;;;;;5111533;28;20451;-61
2022/04/29 11:42:36;;;;;;;8.50;6.40;;;;;;;;;;5100954;28;20465;-62
2022/04/29 11:45:10;;;;;;;8.70;6.73;;;21.20;1.00;;;;;;5102591;28;20437;-62
2022/04/29 11:47:36;;;;;;;7.67;5.80;;;21.50;1.00;;;;;;5110153;28;20996;-60
2022/04/29 11:50:04;;;;;;;10.47;5.50;;;21.30;1.00;;;;;;5099876;28;20476;-60
2022/04/29 11:52:32;;;;;;;6.83;5.40;;;21.20;1.00;;;;;;5091592;28;20521;-61
2022/04/29 11:54:58;;;;;;;7.73;6.33;;;20.90;1.00;;;;;;5091084;28;20437;-60
2022/04/29 11:57:26;;;;;;;8.23;6.33;;;20.70;1.00;;;;;;5099357;28;20866;-60
2022/04/29 11:59:52;;;;;;;7.03;5.60;;;20.70;1.00;;;;;;5102916;28;20465;-61
2022/04/29 12:02:20;;;;;;;7.57;5.60;;;20.70;1.00;;;;;;5091579;28;20441;-60
2022/04/29 12:04:58;;;;;;;6.87;5.00;;;20.90;1.00;;;;;;5108083;28;20485;-61
2022/04/29 12:07:25;;;;;;;8.07;6.20;;;20.70;1.00;;;;;;5111807;28;20490;-60
2022/04/29 12:09:52;;;;;;;8.93;6.57;;;20.50;1.00;;;;;;5103893;28;20910;-61
2022/04/29 12:12:28;;;;;;;7.70;5.20;;;20.20;1.00;;;;;;5077129;28;20490;-60
2022/04/29 12:14:55;;;;;;;6.77;6.00;;;19.80;1.00;;;;;;5091373;28;20432;-60
2022/04/29 12:17:41;;;;;;;8.10;5.90;;;19.60;1.00;;;;;;5091023;28;20518;-60
2022/04/29 12:20:09;;;;;;;8.33;5.80;;;19.80;1.00;;;;;;5110219;28;20920;-62
2022/04/29 12:22:37;;;;;;;6.93;5.20;;;20.30;1.00;;;;;;5095357;28;20443;-60
2022/04/29 12:25:23;;;;;;;5.97;5.10;;;20.60;1.00;;;;;;5090936;28;20457;-61
2022/04/29 12:28:16;;;;;;;9.10;5.97;;;21.00;1.00;;;;;;5096609;28;20437;-61
2022/04/29 12:36:52;;;;;;;5.27;4.70;;;21.10;1.00;;;;;;5110899;28;20898;-60
2022/04/29 12:39:22;;;;;;;6.03;4.97;;;20.90;1.00;;;;;;5090555;28;20441;-60
2022/04/29 12:42:01;;;;;;;6.97;6.27;;;21.00;1.00;;;;;;5099376;28;20553;-61
2022/04/29 12:47:22;;;;;;;7.23;4.93;;;21.00;1.00;;;;;;5098402;28;20447;-60
2022/04/29 12:49:48;;;;;;;6.60;5.67;;;21.20;1.00;;;;;;5090745;28;20941;-60
2022/04/29 12:52:13;;;;;;;6.80;6.20;;;21.40;1.00;;;;;;5092851;28;20447;-60
2022/04/29 12:54:39;;;;;;;7.13;6.20;;;21.30;1.00;;;;;;5104156;28;20199;-60
2022/04/29 12:57:05;;;;;;;8.10;6.10;;;21.10;1.00;;;;;;5091715;28;20271;-60
2022/04/29 12:59:31;;;;;;;12.03;7.30;;;21.10;1.00;;;;;;5090375;28;20187;-61
2022/04/29 13:01:57;;;;;;;7.23;6.30;;;21.20;1.00;;;;;;5090565;28;20505;-61
2022/04/29 13:04:22;;;;;;;9.13;7.13;;;21.10;1.00;;;;;;5077001;28;20186;-58
2022/04/29 13:06:48;;;;;;;6.93;5.80;;;21.10;1.00;;;;;;5090708;28;20190;-61
2022/04/29 13:09:14;;;;;;;7.50;5.80;;;21.10;1.00;;;;;;5092819;28;20202;-59
2022/04/29 13:11:43;;;;;;;6.53;5.93;;;21.40;1.00;;;;;;5110490;28;20868;-61
2022/04/29 13:14:13;;;;;;;8.70;5.77;;;21.40;1.00;;;;;;5110756;28;20435;-61
2022/04/29 13:16:38;;;;;;;7.20;5.60;;;21.50;1.00;;;;;;5110391;28;20524;-60
2022/04/29 13:19:04;;;;;;;9.13;6.20;;;21.40;1.00;;;;;;5110473;28;20427;-61
2022/04/29 13:21:29;;;;;;;7.77;5.53;;;21.50;1.00;;;;;;5101837;28;20612;-61
2022/04/29 13:23:56;;;;;;;12.27;5.80;;;21.40;1.00;;;;;;5090280;28;20240;-62
2022/04/29 13:26:22;;;;;;;9.13;5.77;;;21.50;1.00;;;;;;5089565;28;20192;-60
2022/04/29 13:28:47;;;;;;;6.70;6.00;;;21.70;1.00;;;;;;5110507;28;20797;-61
2022/04/29 13:31:13;;;;;;;5.90;5.30;;;21.60;1.00;;;;;;5110604;28;20197;-60
2022/04/29 13:33:38;;;;;;;5.63;5.13;;;21.60;1.00;;;;;;5110536;28;20196;-60
2022/04/29 13:36:05;;;;;;;6.67;5.33;;;21.70;1.00;;;;;;5110241;28;20221;-60
2022/04/29 13:38:32;;;;;;;6.77;5.37;;;21.50;1.00;;;;;;5110040;28;20647;-61
2022/04/29 13:40:58;;;;;;;6.20;5.60;;;21.60;1.00;;;;;;5090290;28;20421;-61
2022/04/29 13:43:25;;;;;;;6.00;5.40;;;21.80;1.00;;;;;;5098199;28;20524;-61
2022/04/29 13:45:52;;;;;;;5.60;5.10;;;22.10;1.00;;;;;;5109095;28;20189;-62
2022/04/29 13:48:18;;;;;;;8.67;5.43;;;22.10;1.00;;;;;;5086155;28;21071;-61
2022/04/29 13:50:44;;;;;;;5.87;5.20;;;22.20;1.00;;;;;;5089584;28;20436;-59
2022/04/29 13:53:14;;;;;;;6.70;5.70;;;22.10;1.00;;;;;;5091075;28;20930;-60